sensor_id;sensor_type;location;lat;lon;timestamp;temperature;humidity
318;DHT22;146;53.448;10.228;2023-01-16T00:01:21;6.20;1.00
318;DHT22;146;53.448;10.228;2023-01-16T00:03:48;6.20;1.00
318;DHT22;146;53.448;10.228;2023-01-16T00:06:15;6.20;1.00
318;DHT22;146;53.448;10.228;2023-01-16T00:08:42;6.30;1.00
318;DHT22;146;53.448;10.228;2023-01-16T00:11:10;6.30;1.00
318;DHT22;146;53.448;10.228;2023-01-16T00:13:38;6.30;1.00
318;DHT22;146;53.448;10.228;2023-01-16T00:16:06;6.30;1.00
318;DHT22;146;53.448;10.228;2023-01-16T00:18:33;6.30;1.00
318;DHT22;146;53.448;10.228;2023-01-16T00:21:01;6.40;1.00
318;DHT22;146;53.448;10.228;2023-01-16T00:23:28;6.40;1.00
318;DHT22;146;53.448;10.228;2023-01-16T00:25:55;6.50;1.00
318;DHT22;146;53.448;10.228;2023-01-16T00:28:23;6.40;1.00
318;DHT22;146;53.448;10.228;2023-01-16T00:30:50;6.40;1.00
318;DHT22;146;53.448;10.228;2023-01-16T00:33:17;6.30;1.00
318;DHT22;146;53.448;10.228;2023-01-16T00:35:46;6.30;1.00
318;DHT22;146;53.448;10.228;2023-01-16T00:38:13;6.30;1.00
318;DHT22;146;53.448;10.228;2023-01-16T00:40:40;6.30;1.00
318;DHT22;146;53.448;10.228;2023-01-16T00:43:07;6.30;1.00
318;DHT22;146;53.448;10.228;2023-01-16T00:45:35;6.40;1.00
318;DHT22;146;53.448;10.228;2023-01-16T00:48:03;6.40;1.00
318;DHT22;146;53.448;10.228;2023-01-16T00:50:29;6.50;1.00
318;DHT22;146;53.448;10.228;2023-01-16T00:52:56;6.50;1.00
318;DHT22;146;53.448;10.228;2023-01-16T00:55:23;6.60;1.00
318;DHT22;146;53.448;10.228;2023-01-16T00:57:50;6.50;1.00
318;DHT22;146;53.448;10.228;2023-01-16T01:00:17;6.60;1.00
318;DHT22;146;53.448;10.228;2023-01-16T01:02:48;6.50;1.00
318;DHT22;146;53.448;10.228;2023-01-16T01:05:18;6.50;1.00
318;DHT22;146;53.448;10.228;2023-01-16T01:07:46;6.50;1.00
318;DHT22;146;53.448;10.228;2023-01-16T01:10:12;6.40;1.00
318;DHT22;146;53.448;10.228;2023-01-16T01:12:39;6.30;1.00
318;DHT22;146;53.448;10.228;2023-01-16T01:15:07;6.30;1.00
318;DHT22;146;53.448;10.228;2023-01-16T01:17:34;6.20;1.00
318;DHT22;146;53.448;10.228;2023-01-16T01:20:02;6.20;1.00
318;DHT22;146;53.448;10.228;2023-01-16T01:22:29;6.20;1.00
318;DHT22;146;53.448;10.228;2023-01-16T01:24:56;6.10;1.00
318;DHT22;146;53.448;10.228;2023-01-16T01:27:24;6.00;1.00
318;DHT22;146;53.448;10.228;2023-01-16T01:29:53;6.10;1.00
318;DHT22;146;53.448;10.228;2023-01-16T01:32:20;6.10;1.00
318;DHT22;146;53.448;10.228;2023-01-16T01:34:47;6.10;1.00
318;DHT22;146;53.448;10.228;2023-01-16T01:37:15;6.10;1.00
318;DHT22;146;53.448;10.228;2023-01-16T01:39:42;6.10;1.00
318;DHT22;146;53.448;10.228;2023-01-16T01:42:15;6.10;1.00
318;DHT22;146;53.448;10.228;2023-01-16T01:45:09;6.10;1.00
318;DHT22;146;53.448;10.228;2023-01-16T01:47:45;6.00;1.00
318;DHT22;146;53.448;10.228;2023-01-16T01:50:20;6.00;1.00
318;DHT22;146;53.448;10.228;2023-01-16T01:52:51;6.00;1.00
318;DHT22;146;53.448;10.228;2023-01-16T01:55:20;6.00;1.00
318;DHT22;146;53.448;10.228;2023-01-16T01:57:51;6.00;1.00
318;DHT22;146;53.448;10.228;2023-01-16T02:00:22;6.10;1.00
318;DHT22;146;53.448;10.228;2023-01-16T02:02:54;6.00;1.00
318;DHT22;146;53.448;10.228;2023-01-16T02:05:30;6.00;1.00
318;DHT22;146;53.448;10.228;2023-01-16T02:08:01;6.10;1.00
318;DHT22;146;53.448;10.228;2023-01-16T02:10:34;6.10;1.00
318;DHT22;146;53.448;10.228;2023-01-16T02:13:06;6.10;1.00
318;DHT22;146;53.448;10.228;2023-01-16T02:15:36;5.90;1.00
318;DHT22;146;53.448;10.228;2023-01-16T02:18:24;6.00;1.00
318;DHT22;146;53.448;10.228;2023-01-16T02:21:19;5.90;1.00
318;DHT22;146;53.448;10.228;2023-01-16T02:24:29;5.90;1.00
318;DHT22;146;53.448;10.228;2023-01-16T02:27:13;5.80;1.00
318;DHT22;146;53.448;10.228;2023-01-16T02:30:14;5.80;1.00
318;DHT22;146;53.448;10.228;2023-01-16T02:32:56;5.70;1.00
318;DHT22;146;53.448;10.228;2023-01-16T02:35:34;5.50;1.00
318;DHT22;146;53.448;10.228;2023-01-16T02:38:10;5.50;1.00
318;DHT22;146;53.448;10.228;2023-01-16T02:40:50;5.30;1.00
318;DHT22;146;53.448;10.228;2023-01-16T02:43:27;5.20;1.00
318;DHT22;146;53.448;10.228;2023-01-16T02:46:06;5.00;1.00
318;DHT22;146;53.448;10.228;2023-01-16T02:48:39;5.00;1.00
318;DHT22;146;53.448;10.228;2023-01-16T02:51:13;5.00;1.00
318;DHT22;146;53.448;10.228;2023-01-16T02:53:53;5.00;1.00
318;DHT22;146;53.448;10.228;2023-01-16T02:56:27;5.10;1.00
318;DHT22;146;53.448;10.228;2023-01-16T02:59:01;5.20;1.00
318;DHT22;146;53.448;10.228;2023-01-16T03:01:29;5.40;1.00
318;DHT22;146;53.448;10.228;2023-01-16T03:06:59;5.50;1.00
318;DHT22;146;53.448;10.228;2023-01-16T03:09:34;5.50;1.00
318;DHT22;146;53.448;10.228;2023-01-16T03:12:16;5.60;1.00
318;DHT22;146;53.448;10.228;2023-01-16T03:14:51;5.60;1.00
318;DHT22;146;53.448;10.228;2023-01-16T03:17:32;5.70;1.00
318;DHT22;146;53.448;10.228;2023-01-16T03:20:26;5.70;1.00
318;DHT22;146;53.448;10.228;2023-01-16T03:23:02;5.70;1.00
318;DHT22;146;53.448;10.228;2023-01-16T03:25:35;5.70;1.00
318;DHT22;146;53.448;10.228;2023-01-16T03:28:09;5.70;1.00
318;DHT22;146;53.448;10.228;2023-01-16T03:30:47;5.70;1.00
318;DHT22;146;53.448;10.228;2023-01-16T03:33:22;5.70;1.00
318;DHT22;146;53.448;10.228;2023-01-16T03:35:58;5.70;1.00
318;DHT22;146;53.448;10.228;2023-01-16T03:38:29;5.70;1.00
318;DHT22;146;53.448;10.228;2023-01-16T03:40:59;5.70;1.00
318;DHT22;146;53.448;10.228;2023-01-16T03:43:29;5.70;1.00
318;DHT22;146;53.448;10.228;2023-01-16T03:46:00;5.70;1.00
318;DHT22;146;53.448;10.228;2023-01-16T03:48:30;5.70;1.00
318;DHT22;146;53.448;10.228;2023-01-16T03:51:03;5.60;1.00
318;DHT22;146;53.448;10.228;2023-01-16T03:53:35;5.70;1.00
318;DHT22;146;53.448;10.228;2023-01-16T03:56:10;5.70;1.00
318;DHT22;146;53.448;10.228;2023-01-16T03:58:39;5.70;1.00
318;DHT22;146;53.448;10.228;2023-01-16T04:01:13;5.60;1.00
318;DHT22;146;53.448;10.228;2023-01-16T04:03:49;5.60;1.00
318;DHT22;146;53.448;10.228;2023-01-16T04:06:24;5.60;1.00
318;DHT22;146;53.448;10.228;2023-01-16T04:08:53;5.60;1.00
318;DHT22;146;53.448;10.228;2023-01-16T04:11:22;5.60;1.00
318;DHT22;146;53.448;10.228;2023-01-16T04:13:53;5.50;1.00
318;DHT22;146;53.448;10.228;2023-01-16T04:16:22;5.50;1.00
318;DHT22;146;53.448;10.228;2023-01-16T04:18:50;5.50;1.00
318;DHT22;146;53.448;10.228;2023-01-16T04:21:25;5.50;1.00
318;DHT22;146;53.448;10.228;2023-01-16T04:23:54;5.50;1.00
318;DHT22;146;53.448;10.228;2023-01-16T04:26:22;5.60;1.00
318;DHT22;146;53.448;10.228;2023-01-16T04:28:49;5.60;1.00
318;DHT22;146;53.448;10.228;2023-01-16T04:31:21;5.60;1.00
318;DHT22;146;53.448;10.228;2023-01-16T04:33:48;5.60;1.00
318;DHT22;146;53.448;10.228;2023-01-16T04:36:15;5.60;1.00
318;DHT22;146;53.448;10.228;2023-01-16T04:38:43;5.70;1.00
318;DHT22;146;53.448;10.228;2023-01-16T04:41:10;5.60;1.00
318;DHT22;146;53.448;10.228;2023-01-16T04:43:40;5.60;1.00
318;DHT22;146;53.448;10.228;2023-01-16T04:46:07;5.60;1.00
318;DHT22;146;53.448;10.228;2023-01-16T04:48:36;5.70;1.00
318;DHT22;146;53.448;10.228;2023-01-16T04:51:03;5.70;1.00
318;DHT22;146;53.448;10.228;2023-01-16T04:53:34;5.80;1.00
318;DHT22;146;53.448;10.228;2023-01-16T04:56:03;5.80;1.00
318;DHT22;146;53.448;10.228;2023-01-16T04:58:30;5.80;1.00
318;DHT22;146;53.448;10.228;2023-01-16T05:00:57;5.70;1.00
318;DHT22;146;53.448;10.228;2023-01-16T05:03:24;5.70;1.00
318;DHT22;146;53.448;10.228;2023-01-16T05:05:50;5.70;1.00
318;DHT22;146;53.448;10.228;2023-01-16T05:08:17;5.70;1.00
318;DHT22;146;53.448;10.228;2023-01-16T05:10:45;5.70;1.00
318;DHT22;146;53.448;10.228;2023-01-16T05:13:14;5.80;1.00
318;DHT22;146;53.448;10.228;2023-01-16T05:15:42;5.80;1.00
318;DHT22;146;53.448;10.228;2023-01-16T05:18:09;5.90;1.00
318;DHT22;146;53.448;10.228;2023-01-16T05:20:37;5.90;1.00
318;DHT22;146;53.448;10.228;2023-01-16T05:23:04;5.90;1.00
318;DHT22;146;53.448;10.228;2023-01-16T05:25:32;5.90;1.00
318;DHT22;146;53.448;10.228;2023-01-16T05:27:58;5.90;1.00
318;DHT22;146;53.448;10.228;2023-01-16T05:30:27;5.90;1.00
318;DHT22;146;53.448;10.228;2023-01-16T05:32:53;5.80;1.00
318;DHT22;146;53.448;10.228;2023-01-16T05:35:20;5.80;1.00
318;DHT22;146;53.448;10.228;2023-01-16T05:37:47;5.80;1.00
318;DHT22;146;53.448;10.228;2023-01-16T05:40:14;5.70;1.00
318;DHT22;146;53.448;10.228;2023-01-16T05:42:42;5.70;1.00
318;DHT22;146;53.448;10.228;2023-01-16T05:45:10;5.70;1.00
318;DHT22;146;53.448;10.228;2023-01-16T05:47:38;5.70;1.00
318;DHT22;146;53.448;10.228;2023-01-16T05:50:05;5.70;1.00
318;DHT22;146;53.448;10.228;2023-01-16T05:52:33;5.80;1.00
318;DHT22;146;53.448;10.228;2023-01-16T05:54:59;5.80;1.00
318;DHT22;146;53.448;10.228;2023-01-16T05:57:26;5.80;1.00
318;DHT22;146;53.448;10.228;2023-01-16T05:59:54;5.80;1.00
318;DHT22;146;53.448;10.228;2023-01-16T06:02:21;5.80;1.00
318;DHT22;146;53.448;10.228;2023-01-16T06:04:49;5.70;1.00
318;DHT22;146;53.448;10.228;2023-01-16T06:07:17;5.70;1.00
318;DHT22;146;53.448;10.228;2023-01-16T06:09:44;5.80;1.00
318;DHT22;146;53.448;10.228;2023-01-16T06:12:14;5.80;1.00
318;DHT22;146;53.448;10.228;2023-01-16T06:14:41;5.80;1.00
318;DHT22;146;53.448;10.228;2023-01-16T06:17:09;5.70;1.00
318;DHT22;146;53.448;10.228;2023-01-16T06:19:35;5.60;1.00
318;DHT22;146;53.448;10.228;2023-01-16T06:22:04;5.50;1.00
318;DHT22;146;53.448;10.228;2023-01-16T06:24:30;5.50;1.00
318;DHT22;146;53.448;10.228;2023-01-16T06:26:57;5.50;1.00
318;DHT22;146;53.448;10.228;2023-01-16T06:29:24;5.40;1.00
318;DHT22;146;53.448;10.228;2023-01-16T06:31:51;5.40;1.00
318;DHT22;146;53.448;10.228;2023-01-16T06:34:18;5.40;1.00
318;DHT22;146;53.448;10.228;2023-01-16T06:36:45;5.40;1.00
318;DHT22;146;53.448;10.228;2023-01-16T06:39:15;5.40;1.00
318;DHT22;146;53.448;10.228;2023-01-16T06:41:42;5.50;1.00
318;DHT22;146;53.448;10.228;2023-01-16T06:44:09;5.50;1.00
318;DHT22;146;53.448;10.228;2023-01-16T06:46:36;5.60;1.00
318;DHT22;146;53.448;10.228;2023-01-16T06:49:03;5.60;1.00
318;DHT22;146;53.448;10.228;2023-01-16T06:51:30;5.60;1.00
318;DHT22;146;53.448;10.228;2023-01-16T06:53:57;5.60;1.00
318;DHT22;146;53.448;10.228;2023-01-16T06:56:25;5.60;1.00
318;DHT22;146;53.448;10.228;2023-01-16T06:58:52;5.60;1.00
318;DHT22;146;53.448;10.228;2023-01-16T07:01:19;5.50;1.00
318;DHT22;146;53.448;10.228;2023-01-16T07:03:45;5.50;1.00
318;DHT22;146;53.448;10.228;2023-01-16T07:06:12;5.50;1.00
318;DHT22;146;53.448;10.228;2023-01-16T07:08:39;5.50;1.00
318;DHT22;146;53.448;10.228;2023-01-16T07:11:06;5.50;1.00
318;DHT22;146;53.448;10.228;2023-01-16T07:13:34;5.50;1.00
318;DHT22;146;53.448;10.228;2023-01-16T07:16:01;5.50;1.00
318;DHT22;146;53.448;10.228;2023-01-16T07:18:45;5.60;1.00
318;DHT22;146;53.448;10.228;2023-01-16T07:21:31;5.50;1.00
318;DHT22;146;53.448;10.228;2023-01-16T07:24:18;5.40;1.00
318;DHT22;146;53.448;10.228;2023-01-16T07:26:49;5.40;1.00
318;DHT22;146;53.448;10.228;2023-01-16T07:29:18;5.30;1.00
318;DHT22;146;53.448;10.228;2023-01-16T07:31:45;5.50;1.00
318;DHT22;146;53.448;10.228;2023-01-16T07:34:12;5.50;1.00
318;DHT22;146;53.448;10.228;2023-01-16T07:36:39;5.40;1.00
318;DHT22;146;53.448;10.228;2023-01-16T07:39:05;5.30;1.00
318;DHT22;146;53.448;10.228;2023-01-16T07:41:32;5.20;1.00
318;DHT22;146;53.448;10.228;2023-01-16T07:43:59;5.00;1.00
318;DHT22;146;53.448;10.228;2023-01-16T07:46:27;4.90;1.00
318;DHT22;146;53.448;10.228;2023-01-16T07:48:54;4.80;1.00
318;DHT22;146;53.448;10.228;2023-01-16T07:51:22;4.70;1.00
318;DHT22;146;53.448;10.228;2023-01-16T07:53:49;4.60;1.00
318;DHT22;146;53.448;10.228;2023-01-16T07:56:16;4.50;1.00
318;DHT22;146;53.448;10.228;2023-01-16T07:58:43;4.50;1.00
318;DHT22;146;53.448;10.228;2023-01-16T08:01:10;4.30;1.00
318;DHT22;146;53.448;10.228;2023-01-16T08:03:38;4.20;1.00
318;DHT22;146;53.448;10.228;2023-01-16T08:06:06;4.20;1.00
318;DHT22;146;53.448;10.228;2023-01-16T08:08:33;4.10;1.00
318;DHT22;146;53.448;10.228;2023-01-16T08:11:00;4.00;1.00
318;DHT22;146;53.448;10.228;2023-01-16T08:13:52;4.00;1.00
318;DHT22;146;53.448;10.228;2023-01-16T08:16:19;4.00;1.00
318;DHT22;146;53.448;10.228;2023-01-16T08:18:47;4.00;1.00
318;DHT22;146;53.448;10.228;2023-01-16T08:21:15;4.10;1.00
318;DHT22;146;53.448;10.228;2023-01-16T08:23:43;4.10;1.00
318;DHT22;146;53.448;10.228;2023-01-16T08:26:10;4.20;1.00
318;DHT22;146;53.448;10.228;2023-01-16T08:28:37;4.30;1.00
318;DHT22;146;53.448;10.228;2023-01-16T08:31:05;4.40;1.00
318;DHT22;146;53.448;10.228;2023-01-16T08:33:34;4.40;1.00
318;DHT22;146;53.448;10.228;2023-01-16T08:36:03;4.50;1.00
318;DHT22;146;53.448;10.228;2023-01-16T08:38:30;4.50;1.00
318;DHT22;146;53.448;10.228;2023-01-16T08:40:57;4.60;1.00
318;DHT22;146;53.448;10.228;2023-01-16T08:43:24;4.60;1.00
318;DHT22;146;53.448;10.228;2023-01-16T08:46:16;4.60;1.00
318;DHT22;146;53.448;10.228;2023-01-16T08:49:01;4.60;1.00
318;DHT22;146;53.448;10.228;2023-01-16T08:51:47;4.60;1.00
318;DHT22;146;53.448;10.228;2023-01-16T08:54:14;4.60;1.00
318;DHT22;146;53.448;10.228;2023-01-16T08:56:41;4.60;1.00
318;DHT22;146;53.448;10.228;2023-01-16T08:59:08;4.60;1.00
318;DHT22;146;53.448;10.228;2023-01-16T09:01:35;4.60;1.00
318;DHT22;146;53.448;10.228;2023-01-16T09:04:02;4.70;1.00
318;DHT22;146;53.448;10.228;2023-01-16T09:06:29;4.70;1.00
318;DHT22;146;53.448;10.228;2023-01-16T09:08:57;4.70;1.00
318;DHT22;146;53.448;10.228;2023-01-16T09:11:24;4.70;1.00
318;DHT22;146;53.448;10.228;2023-01-16T09:14:08;4.70;1.00
318;DHT22;146;53.448;10.228;2023-01-16T09:16:35;4.70;1.00
318;DHT22;146;53.448;10.228;2023-01-16T09:19:56;4.80;1.00
318;DHT22;146;53.448;10.228;2023-01-16T09:22:23;4.70;1.00
318;DHT22;146;53.448;10.228;2023-01-16T09:24:53;4.70;1.00
318;DHT22;146;53.448;10.228;2023-01-16T09:27:20;4.70;1.00
318;DHT22;146;53.448;10.228;2023-01-16T09:29:49;4.70;1.00
318;DHT22;146;53.448;10.228;2023-01-16T09:32:16;4.80;1.00
318;DHT22;146;53.448;10.228;2023-01-16T09:34:44;4.80;1.00
318;DHT22;146;53.448;10.228;2023-01-16T09:37:11;4.80;1.00
318;DHT22;146;53.448;10.228;2023-01-16T09:39:38;4.90;1.00
318;DHT22;146;53.448;10.228;2023-01-16T09:42:29;4.90;1.00
318;DHT22;146;53.448;10.228;2023-01-16T09:45:19;5.00;1.00
318;DHT22;146;53.448;10.228;2023-01-16T09:47:49;5.10;1.00
318;DHT22;146;53.448;10.228;2023-01-16T09:50:27;5.10;1.00
318;DHT22;146;53.448;10.228;2023-01-16T09:52:57;5.10;1.00
318;DHT22;146;53.448;10.228;2023-01-16T09:55:44;5.20;1.00
318;DHT22;146;53.448;10.228;2023-01-16T09:59:02;5.20;1.00
318;DHT22;146;53.448;10.228;2023-01-16T10:01:41;5.30;1.00
318;DHT22;146;53.448;10.228;2023-01-16T10:04:17;5.30;1.00
318;DHT22;146;53.448;10.228;2023-01-16T10:06:52;5.40;1.00
318;DHT22;146;53.448;10.228;2023-01-16T10:09:29;5.40;1.00
318;DHT22;146;53.448;10.228;2023-01-16T10:12:03;5.40;1.00
318;DHT22;146;53.448;10.228;2023-01-16T10:14:52;5.50;1.00
318;DHT22;146;53.448;10.228;2023-01-16T10:17:27;5.40;1.00
318;DHT22;146;53.448;10.228;2023-01-16T10:20:16;5.50;1.00
318;DHT22;146;53.448;10.228;2023-01-16T10:22:52;5.60;1.00
318;DHT22;146;53.448;10.228;2023-01-16T10:25:28;5.70;1.00
318;DHT22;146;53.448;10.228;2023-01-16T10:28:07;5.80;1.00
318;DHT22;146;53.448;10.228;2023-01-16T10:30:42;5.80;1.00
318;DHT22;146;53.448;10.228;2023-01-16T10:33:13;5.90;1.00
318;DHT22;146;53.448;10.228;2023-01-16T10:35:45;6.00;1.00
318;DHT22;146;53.448;10.228;2023-01-16T10:38:25;6.00;1.00
318;DHT22;146;53.448;10.228;2023-01-16T10:41:05;6.10;1.00
318;DHT22;146;53.448;10.228;2023-01-16T10:43:55;6.10;1.00
318;DHT22;146;53.448;10.228;2023-01-16T10:46:41;6.10;1.00
318;DHT22;146;53.448;10.228;2023-01-16T10:49:26;6.10;1.00
318;DHT22;146;53.448;10.228;2023-01-16T10:51:54;6.10;1.00
318;DHT22;146;53.448;10.228;2023-01-16T10:54:21;6.10;1.00
318;DHT22;146;53.448;10.228;2023-01-16T10:56:48;6.20;1.00
318;DHT22;146;53.448;10.228;2023-01-16T10:59:16;6.20;1.00
318;DHT22;146;53.448;10.228;2023-01-16T11:05:27;6.30;1.00
318;DHT22;146;53.448;10.228;2023-01-16T11:07:56;6.30;1.00
318;DHT22;146;53.448;10.228;2023-01-16T11:10:28;6.20;1.00
318;DHT22;146;53.448;10.228;2023-01-16T11:15:38;6.30;1.00
318;DHT22;146;53.448;10.228;2023-01-16T11:18:29;6.30;1.00
318;DHT22;146;53.448;10.228;2023-01-16T11:20:58;6.30;1.00
318;DHT22;146;53.448;10.228;2023-01-16T11:23:36;6.30;1.00
318;DHT22;146;53.448;10.228;2023-01-16T11:26:04;6.30;1.00
318;DHT22;146;53.448;10.228;2023-01-16T11:28:32;6.30;1.00
318;DHT22;146;53.448;10.228;2023-01-16T11:31:01;6.40;1.00
318;DHT22;146;53.448;10.228;2023-01-16T11:33:35;6.40;1.00
318;DHT22;146;53.448;10.228;2023-01-16T11:39:33;6.40;1.00
318;DHT22;146;53.448;10.228;2023-01-16T11:42:04;6.40;1.00
318;DHT22;146;53.448;10.228;2023-01-16T11:44:57;6.40;1.00
318;DHT22;146;53.448;10.228;2023-01-16T11:47:44;6.40;1.00
318;DHT22;146;53.448;10.228;2023-01-16T11:50:25;6.50;1.00
318;DHT22;146;53.448;10.228;2023-01-16T11:52:52;6.50;1.00
318;DHT22;146;53.448;10.228;2023-01-16T11:55:25;6.40;1.00
318;DHT22;146;53.448;10.228;2023-01-16T11:57:59;6.30;1.00
318;DHT22;146;53.448;10.228;2023-01-16T12:00:41;6.30;1.00
318;DHT22;146;53.448;10.228;2023-01-16T12:03:34;6.40;1.00
318;DHT22;146;53.448;10.228;2023-01-16T12:06:17;6.30;1.00
318;DHT22;146;53.448;10.228;2023-01-16T12:12:10;6.20;1.00
318;DHT22;146;53.448;10.228;2023-01-16T12:14:59;6.10;1.00
318;DHT22;146;53.448;10.228;2023-01-16T12:17:36;6.00;1.00
318;DHT22;146;53.448;10.228;2023-01-16T12:20:14;6.00;1.00
318;DHT22;146;53.448;10.228;2023-01-16T12:23:02;6.00;1.00
318;DHT22;146;53.448;10.228;2023-01-16T12:25:36;6.10;1.00
318;DHT22;146;53.448;10.228;2023-01-16T12:28:13;6.10;1.00
318;DHT22;146;53.448;10.228;2023-01-16T12:30:56;6.10;1.00
318;DHT22;146;53.448;10.228;2023-01-16T12:33:41;6.00;1.00
318;DHT22;146;53.448;10.228;2023-01-16T12:39:40;6.00;1.00
318;DHT22;146;53.448;10.228;2023-01-16T12:42:18;6.10;1.00
318;DHT22;146;53.448;10.228;2023-01-16T12:45:17;6.10;1.00
318;DHT22;146;53.448;10.228;2023-01-16T12:48:30;6.10;1.00
318;DHT22;146;53.448;10.228;2023-01-16T12:50:57;6.10;1.00
318;DHT22;146;53.448;10.228;2023-01-16T12:53:40;6.10;1.00
318;DHT22;146;53.448;10.228;2023-01-16T12:56:24;6.00;1.00
318;DHT22;146;53.448;10.228;2023-01-16T12:58:58;6.10;1.00
318;DHT22;146;53.448;10.228;2023-01-16T13:01:32;6.20;1.00
318;DHT22;146;53.448;10.228;2023-01-16T13:04:07;6.10;1.00
318;DHT22;146;53.448;10.228;2023-01-16T13:06:42;6.10;1.00
318;DHT22;146;53.448;10.228;2023-01-16T13:09:15;6.10;1.00
318;DHT22;146;53.448;10.228;2023-01-16T13:11:55;6.10;1.00
318;DHT22;146;53.448;10.228;2023-01-16T13:14:42;6.10;1.00
318;DHT22;146;53.448;10.228;2023-01-16T13:17:14;6.10;1.00
318;DHT22;146;53.448;10.228;2023-01-16T13:19:45;6.10;1.00
318;DHT22;146;53.448;10.228;2023-01-16T13:22:21;6.10;1.00
318;DHT22;146;53.448;10.228;2023-01-16T13:24:55;6.10;1.00
318;DHT22;146;53.448;10.228;2023-01-16T13:27:42;6.10;1.00
318;DHT22;146;53.448;10.228;2023-01-16T13:30:14;6.00;1.00
318;DHT22;146;53.448;10.228;2023-01-16T13:32:44;5.90;1.00
318;DHT22;146;53.448;10.228;2023-01-16T13:35:18;5.80;1.00
318;DHT22;146;53.448;10.228;2023-01-16T13:38:02;5.80;1.00
318;DHT22;146;53.448;10.228;2023-01-16T13:40:41;5.80;1.00
318;DHT22;146;53.448;10.228;2023-01-16T13:43:20;5.80;1.00
318;DHT22;146;53.448;10.228;2023-01-16T13:46:10;5.80;1.00
318;DHT22;146;53.448;10.228;2023-01-16T13:48:39;5.90;1.00
318;DHT22;146;53.448;10.228;2023-01-16T13:51:11;5.90;1.00
318;DHT22;146;53.448;10.228;2023-01-16T13:53:40;6.00;1.00
318;DHT22;146;53.448;10.228;2023-01-16T13:56:09;6.10;1.00
318;DHT22;146;53.448;10.228;2023-01-16T13:58:40;6.10;1.00
318;DHT22;146;53.448;10.228;2023-01-16T14:01:28;6.00;1.00
318;DHT22;146;53.448;10.228;2023-01-16T14:04:25;6.00;1.00
318;DHT22;146;53.448;10.228;2023-01-16T14:06:53;5.90;1.00
318;DHT22;146;53.448;10.228;2023-01-16T14:10:15;5.80;1.00
318;DHT22;146;53.448;10.228;2023-01-16T14:12:43;5.80;1.00
318;DHT22;146;53.448;10.228;2023-01-16T14:15:18;5.70;1.00
318;DHT22;146;53.448;10.228;2023-01-16T14:18:22;5.70;1.00
318;DHT22;146;53.448;10.228;2023-01-16T14:21:03;5.80;1.00
318;DHT22;146;53.448;10.228;2023-01-16T14:23:33;5.70;1.00
318;DHT22;146;53.448;10.228;2023-01-16T14:26:20;5.80;1.00
318;DHT22;146;53.448;10.228;2023-01-16T14:28:48;5.80;1.00
318;DHT22;146;53.448;10.228;2023-01-16T14:31:26;5.80;1.00
318;DHT22;146;53.448;10.228;2023-01-16T14:33:55;5.90;1.00
318;DHT22;146;53.448;10.228;2023-01-16T14:36:25;5.90;1.00
318;DHT22;146;53.448;10.228;2023-01-16T14:38:53;5.90;1.00
318;DHT22;146;53.448;10.228;2023-01-16T14:41:26;5.90;1.00
318;DHT22;146;53.448;10.228;2023-01-16T14:44:15;5.90;1.00
318;DHT22;146;53.448;10.228;2023-01-16T14:47:26;5.90;1.00
318;DHT22;146;53.448;10.228;2023-01-16T14:50:12;5.80;1.00
318;DHT22;146;53.448;10.228;2023-01-16T14:56:19;5.70;1.00
318;DHT22;146;53.448;10.228;2023-01-16T14:58:50;5.70;1.00
318;DHT22;146;53.448;10.228;2023-01-16T15:01:25;5.80;1.00
318;DHT22;146;53.448;10.228;2023-01-16T15:04:12;5.90;1.00
318;DHT22;146;53.448;10.228;2023-01-16T15:06:43;6.00;1.00
318;DHT22;146;53.448;10.228;2023-01-16T15:09:15;6.00;1.00
318;DHT22;146;53.448;10.228;2023-01-16T15:11:50;5.90;1.00
318;DHT22;146;53.448;10.228;2023-01-16T15:14:19;5.90;1.00
318;DHT22;146;53.448;10.228;2023-01-16T15:17:11;5.90;1.00
318;DHT22;146;53.448;10.228;2023-01-16T15:20:02;5.80;1.00
318;DHT22;146;53.448;10.228;2023-01-16T15:22:51;5.80;1.00
318;DHT22;146;53.448;10.228;2023-01-16T15:28:18;5.80;1.00
318;DHT22;146;53.448;10.228;2023-01-16T15:30:51;5.80;1.00
318;DHT22;146;53.448;10.228;2023-01-16T15:33:24;5.80;1.00
318;DHT22;146;53.448;10.228;2023-01-16T15:36:18;5.80;1.00
318;DHT22;146;53.448;10.228;2023-01-16T15:38:47;5.80;1.00
318;DHT22;146;53.448;10.228;2023-01-16T15:41:41;5.80;1.00
318;DHT22;146;53.448;10.228;2023-01-16T15:44:28;5.70;1.00
318;DHT22;146;53.448;10.228;2023-01-16T15:47:26;5.70;1.00
318;DHT22;146;53.448;10.228;2023-01-16T15:50:04;5.50;1.00
318;DHT22;146;53.448;10.228;2023-01-16T15:52:35;5.50;1.00
318;DHT22;146;53.448;10.228;2023-01-16T16:02:16;5.50;1.00
318;DHT22;146;53.448;10.228;2023-01-16T16:04:44;5.40;1.00
318;DHT22;146;53.448;10.228;2023-01-16T16:07:16;5.40;1.00
318;DHT22;146;53.448;10.228;2023-01-16T16:09:46;5.50;1.00
318;DHT22;146;53.448;10.228;2023-01-16T16:12:15;5.50;1.00
318;DHT22;146;53.448;10.228;2023-01-16T16:15:20;5.60;1.00
318;DHT22;146;53.448;10.228;2023-01-16T16:18:23;5.60;1.00
318;DHT22;146;53.448;10.228;2023-01-16T16:21:05;5.70;1.00
318;DHT22;146;53.448;10.228;2023-01-16T16:23:33;5.70;1.00
318;DHT22;146;53.448;10.228;2023-01-16T16:26:04;5.70;1.00
318;DHT22;146;53.448;10.228;2023-01-16T16:28:34;5.70;1.00
318;DHT22;146;53.448;10.228;2023-01-16T16:31:13;5.70;1.00
318;DHT22;146;53.448;10.228;2023-01-16T16:33:41;5.60;1.00
318;DHT22;146;53.448;10.228;2023-01-16T16:36:14;5.60;1.00
318;DHT22;146;53.448;10.228;2023-01-16T16:38:45;5.60;1.00
318;DHT22;146;53.448;10.228;2023-01-16T16:41:46;5.50;1.00
318;DHT22;146;53.448;10.228;2023-01-16T16:44:36;5.50;1.00
318;DHT22;146;53.448;10.228;2023-01-16T16:47:31;5.40;1.00
318;DHT22;146;53.448;10.228;2023-01-16T16:50:00;5.40;1.00
318;DHT22;146;53.448;10.228;2023-01-16T16:52:29;5.40;1.00
318;DHT22;146;53.448;10.228;2023-01-16T16:54:59;5.40;1.00
318;DHT22;146;53.448;10.228;2023-01-16T16:57:39;5.40;1.00
318;DHT22;146;53.448;10.228;2023-01-16T17:00:15;5.40;1.00
318;DHT22;146;53.448;10.228;2023-01-16T17:02:42;5.40;1.00
318;DHT22;146;53.448;10.228;2023-01-16T17:05:11;5.50;1.00
318;DHT22;146;53.448;10.228;2023-01-16T17:07:40;5.50;1.00
318;DHT22;146;53.448;10.228;2023-01-16T17:10:12;5.40;1.00
318;DHT22;146;53.448;10.228;2023-01-16T17:12:40;5.40;1.00
318;DHT22;146;53.448;10.228;2023-01-16T17:15:09;5.40;1.00
318;DHT22;146;53.448;10.228;2023-01-16T17:17:39;5.40;1.00
318;DHT22;146;53.448;10.228;2023-01-16T17:20:16;5.30;1.00
318;DHT22;146;53.448;10.228;2023-01-16T17:22:43;5.20;1.00
318;DHT22;146;53.448;10.228;2023-01-16T17:25:14;5.20;1.00
318;DHT22;146;53.448;10.228;2023-01-16T17:27:50;5.20;1.00
318;DHT22;146;53.448;10.228;2023-01-16T17:30:18;5.20;1.00
318;DHT22;146;53.448;10.228;2023-01-16T17:32:53;5.30;1.00
318;DHT22;146;53.448;10.228;2023-01-16T17:35:20;5.30;1.00
318;DHT22;146;53.448;10.228;2023-01-16T17:37:49;5.30;1.00
318;DHT22;146;53.448;10.228;2023-01-16T17:40:16;5.40;1.00
318;DHT22;146;53.448;10.228;2023-01-16T17:42:43;5.40;1.00
318;DHT22;146;53.448;10.228;2023-01-16T17:45:35;5.30;1.00
318;DHT22;146;53.448;10.228;2023-01-16T17:48:54;5.30;1.00
318;DHT22;146;53.448;10.228;2023-01-16T17:51:21;5.30;1.00
318;DHT22;146;53.448;10.228;2023-01-16T17:53:50;5.20;1.00
318;DHT22;146;53.448;10.228;2023-01-16T17:56:18;5.20;1.00
318;DHT22;146;53.448;10.228;2023-01-16T17:58:47;5.20;1.00
318;DHT22;146;53.448;10.228;2023-01-16T18:01:21;5.20;1.00
318;DHT22;146;53.448;10.228;2023-01-16T18:03:50;5.20;1.00
318;DHT22;146;53.448;10.228;2023-01-16T18:06:20;5.20;1.00
318;DHT22;146;53.448;10.228;2023-01-16T18:08:48;5.20;1.00